Terminal Aerodrome Forecast
Issued by NWS

Home | Current Version | Previous Version | Text Only | Print | Product List | Glossary On
Versions: 1 2 3 4 5 6 7 8 9 10 11 12 13 14 15 16 17 18
000
FTUS46 KSEW 302300
TAFBFI
TAF
KBFI 302320Z 3100/3124 VRB04KT P6SM VCSH SCT005 BKN015 OVC025
      TEMPO 3100/3102 2SM -RA BR BKN005 OVC015
     FM310400 VRB04KT P6SM VCSH BKN030 BKN060
     FM311000 16006KT P6SM BKN025 OVC045
     FM311700 16006KT P6SM SCT025 BKN050 BKN120=

USA.gov is the U.S. government's official web portal to all federal, state and local government web resources and services.